sensor_id;sensor_type;location;lat;lon;timestamp;pressure;altitude;pressure_sealevel;temperature;humidity
66486;BME280;53303;47.476;8.084;2023-05-25T00:00:52;95444.81;;;21.66;48.88
66486;BME280;53303;47.476;8.084;2023-05-25T00:03:17;95449.09;;;21.67;48.98
66486;BME280;53303;47.476;8.084;2023-05-25T00:05:44;95453.38;;;21.68;49.00
66486;BME280;53303;47.476;8.084;2023-05-25T00:08:12;95458.41;;;21.70;48.97
66486;BME280;53303;47.476;8.084;2023-05-25T00:10:37;95451.59;;;21.71;49.09
66486;BME280;53303;47.476;8.084;2023-05-25T00:13:03;95452.84;;;21.70;49.02
66486;BME280;53303;47.476;8.084;2023-05-25T00:15:30;95450.38;;;21.66;48.95
66486;BME280;53303;47.476;8.084;2023-05-25T00:17:58;95450.09;;;21.70;48.85
66486;BME280;53303;47.476;8.084;2023-05-25T00:20:23;95450.59;;;21.68;48.88
66486;BME280;53303;47.476;8.084;2023-05-25T00:22:49;95441.00;;;21.70;49.05
66486;BME280;53303;47.476;8.084;2023-05-25T00:25:14;95440.00;;;21.67;48.89
66486;BME280;53303;47.476;8.084;2023-05-25T00:27:39;95436.75;;;21.63;48.86
66486;BME280;53303;47.476;8.084;2023-05-25T00:30:05;95438.22;;;21.70;49.03
66486;BME280;53303;47.476;8.084;2023-05-25T00:32:31;95445.78;;;21.69;49.01
66486;BME280;53303;47.476;8.084;2023-05-25T00:34:57;95431.44;;;21.65;49.08
66486;BME280;53303;47.476;8.084;2023-05-25T00:37:24;95434.72;;;21.63;48.72
66486;BME280;53303;47.476;8.084;2023-05-25T00:39:50;95436.72;;;21.68;49.02
66486;BME280;53303;47.476;8.084;2023-05-25T00:42:16;95435.72;;;21.66;49.18
66486;BME280;53303;47.476;8.084;2023-05-25T00:44:41;95421.59;;;21.64;48.74
66486;BME280;53303;47.476;8.084;2023-05-25T00:47:07;95431.16;;;21.68;48.95
66486;BME280;53303;47.476;8.084;2023-05-25T00:49:37;95426.88;;;21.67;49.05
66486;BME280;53303;47.476;8.084;2023-05-25T00:52:03;95414.31;;;21.61;48.99
66486;BME280;53303;47.476;8.084;2023-05-25T00:54:28;95420.56;;;21.67;49.11
66486;BME280;53303;47.476;8.084;2023-05-25T00:57:01;95416.28;;;21.66;49.00
66486;BME280;53303;47.476;8.084;2023-05-25T00:59:41;95427.41;;;21.66;49.00
66486;BME280;53303;47.476;8.084;2023-05-25T01:02:12;95418.31;;;21.65;49.10
66486;BME280;53303;47.476;8.084;2023-05-25T01:04:46;95419.81;;;21.66;49.13
66486;BME280;53303;47.476;8.084;2023-05-25T01:07:21;95416.28;;;21.66;48.95
66486;BME280;53303;47.476;8.084;2023-05-25T01:09:49;95410.78;;;21.60;48.97
66486;BME280;53303;47.476;8.084;2023-05-25T01:12:18;95417.03;;;21.66;49.40
66486;BME280;53303;47.476;8.084;2023-05-25T01:14:44;95414.03;;;21.64;49.00
66486;BME280;53303;47.476;8.084;2023-05-25T01:17:13;95419.06;;;21.66;48.89
66486;BME280;53303;47.476;8.084;2023-05-25T01:19:40;95405.94;;;21.66;49.13
66486;BME280;53303;47.476;8.084;2023-05-25T01:22:30;95413.81;;;21.62;49.03
66486;BME280;53303;47.476;8.084;2023-05-25T01:25:09;95418.06;;;21.63;49.19
66486;BME280;53303;47.476;8.084;2023-05-25T01:27:47;95416.59;;;21.62;48.90
66486;BME280;53303;47.476;8.084;2023-05-25T01:30:17;95407.72;;;21.64;48.91
66486;BME280;53303;47.476;8.084;2023-05-25T01:32:44;95411.25;;;21.64;49.12
66486;BME280;53303;47.476;8.084;2023-05-25T01:35:10;95401.63;;;21.65;49.09
66486;BME280;53303;47.476;8.084;2023-05-25T01:37:37;95398.63;;;21.63;49.23
66486;BME280;53303;47.476;8.084;2023-05-25T01:40:05;95408.47;;;21.64;49.17
66486;BME280;53303;47.476;8.084;2023-05-25T01:42:30;95392.38;;;21.57;48.91
66486;BME280;53303;47.476;8.084;2023-05-25T01:44:57;95409.22;;;21.65;49.06
66486;BME280;53303;47.476;8.084;2023-05-25T01:47:39;95402.94;;;21.64;48.94
66486;BME280;53303;47.476;8.084;2023-05-25T01:50:22;95396.38;;;21.62;48.90
66486;BME280;53303;47.476;8.084;2023-05-25T01:52:56;95394.41;;;21.57;49.00
66486;BME280;53303;47.476;8.084;2023-05-25T01:55:26;95370.75;;;21.50;49.05
66486;BME280;53303;47.476;8.084;2023-05-25T01:57:55;95384.28;;;21.59;49.03
66486;BME280;53303;47.476;8.084;2023-05-25T02:00:27;95400.91;;;21.65;49.14
66486;BME280;53303;47.476;8.084;2023-05-25T02:02:56;95389.84;;;21.59;49.11
66486;BME280;53303;47.476;8.084;2023-05-25T02:05:22;95397.88;;;21.63;49.20
66486;BME280;53303;47.476;8.084;2023-05-25T02:07:48;95390.59;;;21.60;49.16
66486;BME280;53303;47.476;8.084;2023-05-25T02:10:13;95385.09;;;21.54;48.97
66486;BME280;53303;47.476;8.084;2023-05-25T02:12:39;95388.31;;;21.58;49.16
66486;BME280;53303;47.476;8.084;2023-05-25T02:15:05;95389.03;;;21.64;49.17
66486;BME280;53303;47.476;8.084;2023-05-25T02:17:33;95385.25;;;21.62;49.21
66486;BME280;53303;47.476;8.084;2023-05-25T02:20:01;95372.97;;;21.57;48.95
66486;BME280;53303;47.476;8.084;2023-05-25T02:22:30;95389.03;;;21.64;49.08
66486;BME280;53303;47.476;8.084;2023-05-25T02:24:55;95382.72;;;21.64;49.03
66486;BME280;53303;47.476;8.084;2023-05-25T02:27:23;95374.16;;;21.62;49.09
66486;BME280;53303;47.476;8.084;2023-05-25T02:29:48;95379.19;;;21.63;48.96
66486;BME280;53303;47.476;8.084;2023-05-25T02:32:14;95371.38;;;21.62;49.06
66486;BME280;53303;47.476;8.084;2023-05-25T02:34:40;95376.41;;;21.63;49.13
66486;BME280;53303;47.476;8.084;2023-05-25T02:37:05;95370.41;;;21.59;48.99
66486;BME280;53303;47.476;8.084;2023-05-25T02:39:31;95377.16;;;21.64;49.17
66486;BME280;53303;47.476;8.084;2023-05-25T02:41:56;95370.41;;;21.59;49.00
66486;BME280;53303;47.476;8.084;2023-05-25T02:44:22;95371.59;;;21.64;49.02
66486;BME280;53303;47.476;8.084;2023-05-25T02:46:47;95369.13;;;21.60;49.00
66486;BME280;53303;47.476;8.084;2023-05-25T02:49:13;95376.41;;;21.63;48.90
66486;BME280;53303;47.476;8.084;2023-05-25T02:51:38;95360.34;;;21.56;49.05
66486;BME280;53303;47.476;8.084;2023-05-25T02:54:04;95378.44;;;21.63;48.97
66486;BME280;53303;47.476;8.084;2023-05-25T02:56:32;95362.59;;;21.58;49.06
66486;BME280;53303;47.476;8.084;2023-05-25T02:58:57;95380.47;;;21.62;48.86
66486;BME280;53303;47.476;8.084;2023-05-25T03:01:23;95378.22;;;21.61;48.90
66486;BME280;53303;47.476;8.084;2023-05-25T03:03:49;95370.69;;;21.56;48.90
66486;BME280;53303;47.476;8.084;2023-05-25T03:06:16;95373.41;;;21.61;49.12
66486;BME280;53303;47.476;8.084;2023-05-25T03:08:42;95383.00;;;21.60;48.91
66486;BME280;53303;47.476;8.084;2023-05-25T03:11:08;95373.69;;;21.58;48.94
66486;BME280;53303;47.476;8.084;2023-05-25T03:13:34;95385.25;;;21.62;49.31
66486;BME280;53303;47.476;8.084;2023-05-25T03:15:59;95371.44;;;21.56;49.06
66486;BME280;53303;47.476;8.084;2023-05-25T03:18:27;95392.09;;;21.61;49.23
66486;BME280;53303;47.476;8.084;2023-05-25T03:20:55;95397.16;;;21.62;49.14
66486;BME280;53303;47.476;8.084;2023-05-25T03:23:23;95392.84;;;21.61;49.00
66486;BME280;53303;47.476;8.084;2023-05-25T03:25:50;95385.25;;;21.62;49.09
66486;BME280;53303;47.476;8.084;2023-05-25T03:28:16;95382.53;;;21.56;49.27
66486;BME280;53303;47.476;8.084;2023-05-25T03:30:41;95399.16;;;21.62;48.97
66486;BME280;53303;47.476;8.084;2023-05-25T03:33:07;95382.84;;;21.53;49.23
66486;BME280;53303;47.476;8.084;2023-05-25T03:35:32;95397.66;;;21.61;49.12
66486;BME280;53303;47.476;8.084;2023-05-25T03:38:00;95391.38;;;21.55;49.16
66486;BME280;53303;47.476;8.084;2023-05-25T03:40:25;95397.66;;;21.61;49.18
66486;BME280;53303;47.476;8.084;2023-05-25T03:42:50;95398.41;;;21.61;49.17
66486;BME280;53303;47.476;8.084;2023-05-25T03:45:16;95399.66;;;21.60;49.00
66486;BME280;53303;47.476;8.084;2023-05-25T03:47:43;95394.41;;;21.57;49.25
66486;BME280;53303;47.476;8.084;2023-05-25T03:50:09;95394.41;;;21.57;49.14
66486;BME280;53303;47.476;8.084;2023-05-25T03:52:35;95397.66;;;21.61;49.06
66486;BME280;53303;47.476;8.084;2023-05-25T03:55:01;95399.66;;;21.60;49.10
66486;BME280;53303;47.476;8.084;2023-05-25T03:57:28;95406.00;;;21.61;48.95
66486;BME280;53303;47.476;8.084;2023-05-25T03:59:56;95393.66;;;21.56;48.82
66486;BME280;53303;47.476;8.084;2023-05-25T04:02:21;95399.94;;;21.57;48.37
66486;BME280;53303;47.476;8.084;2023-05-25T04:04:47;95391.91;;;21.53;48.17
66486;BME280;53303;47.476;8.084;2023-05-25T04:07:17;95404.47;;;21.60;47.32
66486;BME280;53303;47.476;8.084;2023-05-25T04:09:43;95407.25;;;21.60;46.77
66486;BME280;53303;47.476;8.084;2023-05-25T04:12:08;95399.19;;;21.56;46.17
66486;BME280;53303;47.476;8.084;2023-05-25T04:14:36;95402.44;;;21.60;45.79
66486;BME280;53303;47.476;8.084;2023-05-25T04:17:01;95403.28;;;21.55;45.62
66486;BME280;53303;47.476;8.084;2023-05-25T04:19:27;95416.09;;;21.58;45.97
66486;BME280;53303;47.476;8.084;2023-05-25T04:21:52;95414.59;;;21.57;45.99
66486;BME280;53303;47.476;8.084;2023-05-25T04:24:17;95428.72;;;21.59;45.92
66486;BME280;53303;47.476;8.084;2023-05-25T04:26:43;95425.47;;;21.55;46.01
66486;BME280;53303;47.476;8.084;2023-05-25T04:29:10;95422.94;;;21.57;46.00
66486;BME280;53303;47.476;8.084;2023-05-25T04:31:37;95432.00;;;21.58;46.38
66486;BME280;53303;47.476;8.084;2023-05-25T04:34:03;95429.00;;;21.56;46.09
66486;BME280;53303;47.476;8.084;2023-05-25T04:36:28;95430.03;;;21.53;46.52
66486;BME280;53303;47.476;8.084;2023-05-25T04:38:56;95434.03;;;21.57;46.38
66486;BME280;53303;47.476;8.084;2023-05-25T04:41:27;95435.28;;;21.56;46.57
66486;BME280;53303;47.476;8.084;2023-05-25T04:43:55;95440.09;;;21.56;46.52
66486;BME280;53303;47.476;8.084;2023-05-25T04:46:20;95435.56;;;21.53;46.60
66486;BME280;53303;47.476;8.084;2023-05-25T04:48:45;95430.03;;;21.53;46.63
66486;BME280;53303;47.476;8.084;2023-05-25T04:51:11;95431.81;;;21.50;46.80
66486;BME280;53303;47.476;8.084;2023-05-25T04:53:37;95440.34;;;21.58;46.81
66486;BME280;53303;47.476;8.084;2023-05-25T04:56:02;95439.59;;;21.57;46.77
66486;BME280;53303;47.476;8.084;2023-05-25T04:58:28;95446.63;;;21.58;46.96
66486;BME280;53303;47.476;8.084;2023-05-25T05:00:54;95433.25;;;21.57;46.90
66486;BME280;53303;47.476;8.084;2023-05-25T05:03:19;95434.31;;;21.54;47.10
66486;BME280;53303;47.476;8.084;2023-05-25T05:05:45;95439.34;;;21.55;47.11
66486;BME280;53303;47.476;8.084;2023-05-25T05:08:10;95437.31;;;21.56;47.19
66486;BME280;53303;47.476;8.084;2023-05-25T05:10:36;95444.63;;;21.59;47.20
66486;BME280;53303;47.476;8.084;2023-05-25T05:13:01;95438.88;;;21.51;47.37
66486;BME280;53303;47.476;8.084;2023-05-25T05:15:27;95440.63;;;21.54;47.38
66486;BME280;53303;47.476;8.084;2023-05-25T05:17:53;95449.41;;;21.58;47.20
66486;BME280;53303;47.476;8.084;2023-05-25T05:20:18;95451.50;;;21.52;47.35
66486;BME280;53303;47.476;8.084;2023-05-25T05:22:44;95453.47;;;21.57;47.44
66486;BME280;53303;47.476;8.084;2023-05-25T05:25:10;95457.75;;;21.58;47.37
66486;BME280;53303;47.476;8.084;2023-05-25T05:27:39;95451.44;;;21.58;47.35
66486;BME280;53303;47.476;8.084;2023-05-25T05:30:06;95454.97;;;21.58;47.33
66486;BME280;53303;47.476;8.084;2023-05-25T05:32:32;95443.63;;;21.56;47.46
66486;BME280;53303;47.476;8.084;2023-05-25T05:34:57;95454.22;;;21.58;47.54
66486;BME280;53303;47.476;8.084;2023-05-25T05:37:23;95463.28;;;21.58;47.46
66486;BME280;53303;47.476;8.084;2023-05-25T05:39:48;95454.00;;;21.56;47.49
66486;BME280;53303;47.476;8.084;2023-05-25T05:42:16;95457.75;;;21.58;47.50
66486;BME280;53303;47.476;8.084;2023-05-25T05:44:41;95457.00;;;21.58;47.65
66486;BME280;53303;47.476;8.084;2023-05-25T05:47:07;95459.81;;;21.52;47.57
66486;BME280;53303;47.476;8.084;2023-05-25T05:49:32;95468.84;;;21.58;47.73
66486;BME280;53303;47.476;8.084;2023-05-25T05:51:58;95459.59;;;21.50;47.76
66486;BME280;53303;47.476;8.084;2023-05-25T05:54:24;95478.47;;;21.57;47.58
66486;BME280;53303;47.476;8.084;2023-05-25T05:56:51;95461.06;;;21.51;47.73
66486;BME280;53303;47.476;8.084;2023-05-25T05:59:17;95475.69;;;21.57;47.71
66486;BME280;53303;47.476;8.084;2023-05-25T06:01:43;95472.13;;;21.57;47.61
66486;BME280;53303;47.476;8.084;2023-05-25T06:04:08;95464.09;;;21.53;47.60
66486;BME280;53303;47.476;8.084;2023-05-25T06:06:34;95475.91;;;21.59;47.78
66486;BME280;53303;47.476;8.084;2023-05-25T06:09:00;95469.63;;;21.59;47.58
66486;BME280;53303;47.476;8.084;2023-05-25T06:11:28;95475.91;;;21.59;47.68
66486;BME280;53303;47.476;8.084;2023-05-25T06:13:53;95480.72;;;21.59;47.83
66486;BME280;53303;47.476;8.084;2023-05-25T06:16:18;95473.94;;;21.54;47.91
66486;BME280;53303;47.476;8.084;2023-05-25T06:18:44;95475.16;;;21.59;47.66
66486;BME280;53303;47.476;8.084;2023-05-25T06:21:10;95475.16;;;21.59;47.68
66486;BME280;53303;47.476;8.084;2023-05-25T06:23:35;95467.13;;;21.55;47.83
66486;BME280;53303;47.476;8.084;2023-05-25T06:26:04;95471.63;;;21.58;47.60
66486;BME280;53303;47.476;8.084;2023-05-25T06:28:35;95470.94;;;21.52;48.00
66486;BME280;53303;47.476;8.084;2023-05-25T06:31:00;95474.69;;;21.55;47.60
66486;BME280;53303;47.476;8.084;2023-05-25T06:33:29;95488.50;;;21.60;47.91
66486;BME280;53303;47.476;8.084;2023-05-25T06:35:55;95481.00;;;21.55;47.74
66486;BME280;53303;47.476;8.084;2023-05-25T06:38:27;95487.78;;;21.60;47.91
66486;BME280;53303;47.476;8.084;2023-05-25T06:40:53;95495.13;;;21.57;47.72
66486;BME280;53303;47.476;8.084;2023-05-25T06:43:19;95498.88;;;21.60;47.78
66486;BME280;53303;47.476;8.084;2023-05-25T06:45:44;95493.84;;;21.58;47.85
66486;BME280;53303;47.476;8.084;2023-05-25T06:48:10;95492.84;;;21.56;47.74
66486;BME280;53303;47.476;8.084;2023-05-25T06:50:35;95498.41;;;21.56;47.96
66486;BME280;53303;47.476;8.084;2023-05-25T06:53:01;95478.53;;;21.46;47.97
66486;BME280;53303;47.476;8.084;2023-05-25T06:55:26;95495.88;;;21.58;47.84
66486;BME280;53303;47.476;8.084;2023-05-25T06:57:52;95492.34;;;21.57;47.96
66486;BME280;53303;47.476;8.084;2023-05-25T07:00:20;95493.13;;;21.52;47.93
66486;BME280;53303;47.476;8.084;2023-05-25T07:02:46;95499.91;;;21.57;47.86
66486;BME280;53303;47.476;8.084;2023-05-25T07:05:13;95507.44;;;21.62;48.01
66486;BME280;53303;47.476;8.084;2023-05-25T07:07:39;95499.63;;;21.60;48.12
66486;BME280;53303;47.476;8.084;2023-05-25T07:10:05;95498.38;;;21.61;48.04
66486;BME280;53303;47.476;8.084;2023-05-25T07:12:30;95497.38;;;21.59;47.83
66486;BME280;53303;47.476;8.084;2023-05-25T07:14:56;95500.63;;;21.63;48.09
66486;BME280;53303;47.476;8.084;2023-05-25T07:17:24;95499.91;;;21.57;48.10
66486;BME280;53303;47.476;8.084;2023-05-25T07:19:50;95504.16;;;21.63;48.04
66486;BME280;53303;47.476;8.084;2023-05-25T07:22:16;95486.34;;;21.47;48.05
66486;BME280;53303;47.476;8.084;2023-05-25T07:24:44;95492.84;;;21.56;48.22
66486;BME280;53303;47.476;8.084;2023-05-25T07:27:10;95517.28;;;21.63;47.95
66486;BME280;53303;47.476;8.084;2023-05-25T07:29:35;95499.91;;;21.57;48.08
66486;BME280;53303;47.476;8.084;2023-05-25T07:32:01;95513.75;;;21.62;47.92
66486;BME280;53303;47.476;8.084;2023-05-25T07:34:26;95519.84;;;21.61;47.93
66486;BME280;53303;47.476;8.084;2023-05-25T07:36:52;95519.84;;;21.61;48.02
66486;BME280;53303;47.476;8.084;2023-05-25T07:39:17;95522.09;;;21.62;47.92
66486;BME280;53303;47.476;8.084;2023-05-25T07:41:42;95521.09;;;21.60;47.91
66486;BME280;53303;47.476;8.084;2023-05-25T07:44:08;95527.88;;;21.64;47.92
66486;BME280;53303;47.476;8.084;2023-05-25T07:46:36;95537.69;;;21.65;47.87
66486;BME280;53303;47.476;8.084;2023-05-25T07:49:01;95533.19;;;21.62;48.17
66486;BME280;53303;47.476;8.084;2023-05-25T07:51:28;95532.16;;;21.65;47.90
66486;BME280;53303;47.476;8.084;2023-05-25T07:53:54;95521.56;;;21.64;47.95
66486;BME280;53303;47.476;8.084;2023-05-25T07:56:23;95529.66;;;21.62;47.93
66486;BME280;53303;47.476;8.084;2023-05-25T07:58:49;95539.97;;;21.67;48.08
66486;BME280;53303;47.476;8.084;2023-05-25T08:01:14;95536.50;;;21.61;48.06
66486;BME280;53303;47.476;8.084;2023-05-25T08:03:42;95539.97;;;21.67;48.08
66486;BME280;53303;47.476;8.084;2023-05-25T08:06:08;95534.41;;;21.67;47.92
66486;BME280;53303;47.476;8.084;2023-05-25T08:08:33;95545.06;;;21.63;47.99
66486;BME280;53303;47.476;8.084;2023-05-25T08:11:01;95540.47;;;21.65;47.80
66486;BME280;53303;47.476;8.084;2023-05-25T08:13:26;95550.84;;;21.65;47.86
66486;BME280;53303;47.476;8.084;2023-05-25T08:15:54;95553.84;;;21.67;48.15
66486;BME280;53303;47.476;8.084;2023-05-25T08:18:20;95554.63;;;21.67;47.90
66486;BME280;53303;47.476;8.084;2023-05-25T08:20:45;95553.84;;;21.67;48.09
66486;BME280;53303;47.476;8.084;2023-05-25T08:23:10;95559.41;;;21.67;48.21
66486;BME280;53303;47.476;8.084;2023-05-25T08:25:36;95552.63;;;21.62;48.11
66486;BME280;53303;47.476;8.084;2023-05-25T08:28:01;95559.41;;;21.67;47.94
66486;BME280;53303;47.476;8.084;2023-05-25T08:30:26;95557.13;;;21.65;48.11
66486;BME280;53303;47.476;8.084;2023-05-25T08:32:56;95566.75;;;21.64;47.97
66486;BME280;53303;47.476;8.084;2023-05-25T08:35:21;95568.50;;;21.67;48.10
66486;BME280;53303;47.476;8.084;2023-05-25T08:37:49;95574.31;;;21.64;48.26
66486;BME280;53303;47.476;8.084;2023-05-25T08:40:15;95571.81;;;21.66;48.16
66486;BME280;53303;47.476;8.084;2023-05-25T08:42:43;95580.13;;;21.66;48.13
66486;BME280;53303;47.476;8.084;2023-05-25T08:45:12;95583.88;;;21.68;48.02
66486;BME280;53303;47.476;8.084;2023-05-25T08:47:41;95575.56;;;21.68;48.14
66486;BME280;53303;47.476;8.084;2023-05-25T08:50:08;95581.13;;;21.68;47.99
66486;BME280;53303;47.476;8.084;2023-05-25T08:52:38;95576.31;;;21.69;48.07
66486;BME280;53303;47.476;8.084;2023-05-25T08:55:05;95576.31;;;21.69;48.02
66486;BME280;53303;47.476;8.084;2023-05-25T09:00:14;95574.81;;;21.68;48.25
66486;BME280;53303;47.476;8.084;2023-05-25T09:05:23;95574.81;;;21.68;48.04
66486;BME280;53303;47.476;8.084;2023-05-25T09:07:51;95581.63;;;21.67;48.13
66486;BME280;53303;47.476;8.084;2023-05-25T09:10:19;95572.03;;;21.68;48.09
66486;BME280;53303;47.476;8.084;2023-05-25T09:12:45;95572.53;;;21.66;48.20
66486;BME280;53303;47.476;8.084;2023-05-25T09:15:11;95576.31;;;21.69;48.17
66486;BME280;53303;47.476;8.084;2023-05-25T09:17:37;95591.47;;;21.68;48.08
66486;BME280;53303;47.476;8.084;2023-05-25T09:20:06;95590.47;;;21.71;48.14
66486;BME280;53303;47.476;8.084;2023-05-25T09:22:34;95595.75;;;21.69;48.02
66486;BME280;53303;47.476;8.084;2023-05-25T09:25:02;95595.22;;;21.71;48.11
66486;BME280;53303;47.476;8.084;2023-05-25T09:27:33;95593.97;;;21.72;47.96
66486;BME280;53303;47.476;8.084;2023-05-25T09:30:00;95617.44;;;21.71;48.11
66486;BME280;53303;47.476;8.084;2023-05-25T09:32:29;95610.63;;;21.72;48.01
66486;BME280;53303;47.476;8.084;2023-05-25T09:34:55;95610.63;;;21.72;48.03
66486;BME280;53303;47.476;8.084;2023-05-25T09:37:22;95619.72;;;21.72;48.04
66486;BME280;53303;47.476;8.084;2023-05-25T09:39:50;95618.47;;;21.73;48.22
66486;BME280;53303;47.476;8.084;2023-05-25T09:42:15;95619.72;;;21.72;48.19
66486;BME280;53303;47.476;8.084;2023-05-25T09:44:42;95618.47;;;21.73;48.15
66486;BME280;53303;47.476;8.084;2023-05-25T09:47:08;95620.50;;;21.67;48.00
66486;BME280;53303;47.476;8.084;2023-05-25T09:49:37;95626.03;;;21.73;48.22
66486;BME280;53303;47.476;8.084;2023-05-25T09:52:06;95633.84;;;21.74;48.17
66486;BME280;53303;47.476;8.084;2023-05-25T09:54:32;95628.31;;;21.68;48.29
66486;BME280;53303;47.476;8.084;2023-05-25T09:57:01;95627.31;;;21.72;48.21
66486;BME280;53303;47.476;8.084;2023-05-25T09:59:29;95633.34;;;21.76;48.06
66486;BME280;53303;47.476;8.084;2023-05-25T10:01:55;95636.09;;;21.76;48.08
66486;BME280;53303;47.476;8.084;2023-05-25T10:04:20;95638.13;;;21.75;48.04
66486;BME280;53303;47.476;8.084;2023-05-25T10:06:47;95641.16;;;21.77;48.23
66486;BME280;53303;47.476;8.084;2023-05-25T10:09:18;95639.13;;;21.78;48.07
66486;BME280;53303;47.476;8.084;2023-05-25T10:11:43;95646.94;;;21.79;47.98
66486;BME280;53303;47.476;8.084;2023-05-25T10:14:13;95639.63;;;21.76;48.10
66486;BME280;53303;47.476;8.084;2023-05-25T10:16:39;95646.94;;;21.79;48.08
66486;BME280;53303;47.476;8.084;2023-05-25T10:19:11;95646.19;;;21.79;48.18
66486;BME280;53303;47.476;8.084;2023-05-25T10:21:41;95656.81;;;21.80;48.07
66486;BME280;53303;47.476;8.084;2023-05-25T10:24:42;95646.97;;;21.74;48.03
66486;BME280;53303;47.476;8.084;2023-05-25T10:27:08;95658.06;;;21.79;48.18
66486;BME280;53303;47.476;8.084;2023-05-25T10:29:36;95649.75;;;21.74;48.27
66486;BME280;53303;47.476;8.084;2023-05-25T10:32:05;95659.81;;;21.82;48.27
66486;BME280;53303;47.476;8.084;2023-05-25T10:34:31;95657.03;;;21.82;48.22
66486;BME280;53303;47.476;8.084;2023-05-25T10:37:00;95648.94;;;21.84;48.19
66486;BME280;53303;47.476;8.084;2023-05-25T10:39:27;95657.78;;;21.83;48.08
66486;BME280;53303;47.476;8.084;2023-05-25T10:41:56;95656.03;;;21.80;48.17
66486;BME280;53303;47.476;8.084;2023-05-25T10:44:22;95658.81;;;21.80;48.10
66486;BME280;53303;47.476;8.084;2023-05-25T10:46:49;95661.56;;;21.85;48.29
66486;BME280;53303;47.476;8.084;2023-05-25T10:49:34;95656.56;;;21.78;48.09
66486;BME280;53303;47.476;8.084;2023-05-25T10:52:09;95674.69;;;21.85;48.37
66486;BME280;53303;47.476;8.084;2023-05-25T10:54:35;95674.91;;;21.87;48.10
66486;BME280;53303;47.476;8.084;2023-05-25T10:57:20;95674.69;;;21.85;48.17
66486;BME280;53303;47.476;8.084;2023-05-25T10:59:49;95675.19;;;21.89;48.17
66486;BME280;53303;47.476;8.084;2023-05-25T11:02:16;95677.19;;;21.89;48.06
66486;BME280;53303;47.476;8.084;2023-05-25T11:04:41;95676.44;;;21.88;48.04
66486;BME280;53303;47.476;8.084;2023-05-25T11:07:13;95667.59;;;21.90;47.83
66486;BME280;53303;47.476;8.084;2023-05-25T11:09:41;95678.50;;;21.76;48.42
66486;BME280;53303;47.476;8.084;2023-05-25T11:12:16;95675.97;;;21.84;48.34
66486;BME280;53303;47.476;8.084;2023-05-25T11:14:42;95687.31;;;21.86;48.20
66486;BME280;53303;47.476;8.084;2023-05-25T11:19:41;95708.25;;;21.93;48.01
66486;BME280;53303;47.476;8.084;2023-05-25T11:22:17;95709.50;;;21.92;48.24
66486;BME280;53303;47.476;8.084;2023-05-25T11:24:52;95709.78;;;21.88;48.29
66486;BME280;53303;47.476;8.084;2023-05-25T11:27:22;95694.63;;;21.89;48.12
66486;BME280;53303;47.476;8.084;2023-05-25T11:29:52;95702.94;;;21.95;48.24
66486;BME280;53303;47.476;8.084;2023-05-25T11:32:20;95688.31;;;21.89;48.20
66486;BME280;53303;47.476;8.084;2023-05-25T11:34:46;95700.91;;;21.95;48.29
66486;BME280;53303;47.476;8.084;2023-05-25T11:37:15;95706.72;;;21.92;48.15
66486;BME280;53303;47.476;8.084;2023-05-25T11:39:43;95707.97;;;21.96;48.30
66486;BME280;53303;47.476;8.084;2023-05-25T11:42:11;95705.19;;;21.96;48.13
66486;BME280;53303;47.476;8.084;2023-05-25T11:44:39;95695.38;;;21.90;48.27
66486;BME280;53303;47.476;8.084;2023-05-25T11:47:11;95712.25;;;21.97;48.24
66486;BME280;53303;47.476;8.084;2023-05-25T11:49:42;95703.16;;;21.97;48.21
66486;BME280;53303;47.476;8.084;2023-05-25T11:52:10;95709.31;;;21.84;48.52
66486;BME280;53303;47.476;8.084;2023-05-25T11:54:37;95702.47;;;21.85;48.38
66486;BME280;53303;47.476;8.084;2023-05-25T11:57:13;95711.53;;;21.91;48.28
66486;BME280;53303;47.476;8.084;2023-05-25T11:59:39;95700.19;;;21.89;48.50
66486;BME280;53303;47.476;8.084;2023-05-25T12:02:05;95705.44;;;21.98;48.35
66486;BME280;53303;47.476;8.084;2023-05-25T12:04:33;95703.44;;;21.93;48.27
66486;BME280;53303;47.476;8.084;2023-05-25T12:07:06;95707.47;;;21.98;48.07
66486;BME280;53303;47.476;8.084;2023-05-25T12:09:33;95712.50;;;21.99;48.32
66486;BME280;53303;47.476;8.084;2023-05-25T12:12:02;95707.72;;;22.00;48.35
66486;BME280;53303;47.476;8.084;2023-05-25T12:14:30;95704.69;;;21.98;48.26
66486;BME280;53303;47.476;8.084;2023-05-25T12:16:58;95700.88;;;22.01;48.36
66486;BME280;53303;47.476;8.084;2023-05-25T12:19:24;95696.88;;;21.96;48.37
66486;BME280;53303;47.476;8.084;2023-05-25T12:21:50;95693.31;;;22.01;48.36
66486;BME280;53303;47.476;8.084;2023-05-25T12:24:16;95705.69;;;22.00;48.57
66486;BME280;53303;47.476;8.084;2023-05-25T12:26:52;95702.44;;;21.96;48.34
66486;BME280;53303;47.476;8.084;2023-05-25T12:29:26;95703.66;;;22.01;48.21
66486;BME280;53303;47.476;8.084;2023-05-25T12:31:51;95698.34;;;21.97;48.31
66486;BME280;53303;47.476;8.084;2023-05-25T12:34:18;95709.44;;;22.03;48.34
66486;BME280;53303;47.476;8.084;2023-05-25T12:41:58;95720.81;;;22.05;48.46
66486;BME280;53303;47.476;8.084;2023-05-25T12:44:35;95715.53;;;22.01;48.27
66486;BME280;53303;47.476;8.084;2023-05-25T12:47:21;95718.31;;;22.01;48.47
66486;BME280;53303;47.476;8.084;2023-05-25T12:49:49;95714.53;;;21.99;48.46
66486;BME280;53303;47.476;8.084;2023-05-25T12:52:31;95710.22;;;22.03;48.22
66486;BME280;53303;47.476;8.084;2023-05-25T12:54:57;95718.56;;;22.03;48.39
66486;BME280;53303;47.476;8.084;2023-05-25T12:57:33;95715.25;;;22.05;48.27
66486;BME280;53303;47.476;8.084;2023-05-25T13:00:00;95702.91;;;22.00;48.38
66486;BME280;53303;47.476;8.084;2023-05-25T13:02:26;95705.16;;;22.02;48.50
66486;BME280;53303;47.476;8.084;2023-05-25T13:04:51;95719.53;;;22.06;48.22
66486;BME280;53303;47.476;8.084;2023-05-25T13:07:17;95711.47;;;22.02;48.46
66486;BME280;53303;47.476;8.084;2023-05-25T13:09:43;95706.66;;;22.03;48.28
66486;BME280;53303;47.476;8.084;2023-05-25T13:12:08;95707.66;;;22.05;48.24
66486;BME280;53303;47.476;8.084;2023-05-25T13:14:36;95713.47;;;22.08;48.38